VTSP/HKT METAR and TAF weather

Enter ICAO airport designator
Station Type Date Time Source
VTSP METAR 2020/07/12 03:30 UTC NOAA

VTSP 120330Z 28006KT 250V310 9999 SCT018 BKN100 28/24 Q1009 NOSIG


Station Type Date Time Source
VTSP Decoded METAR 2020/07/12 03:30 UTC NOAA

Phuket Airport, Thailand (VTSP) 08-07N 098-19E 10M
Jul 11, 2020 - 11:30 PM EDT / 2020.07.12 0330 UTC
Wind: from the W (280 degrees) at 7 MPH (6 KT) (direction variable):0
Visibility: greater than 7 mile(s):0
Sky conditions: mostly cloudy
Temperature: 82 F (28 C)
Dew Point: 75 F (24 C)
Relative Humidity: 78%
Pressure (altimeter): 29.80 in. Hg (1009 hPa)
ob: VTSP 120330Z 28006KT 250V310 9999 SCT018 BKN100 28/24 Q1009 NOSIG
cycle: 3

Station Type Date Time Source
VTSP TAF 2020/07/11 18:36 UTC NOAA

TAF VTSP 111700Z 1118/1224 00000KT 9999 FEW020 BKN100
BECMG 1202/1204 28008KT
TEMPO 1204/1210 28015G25KT 5000 TSRA FEW018CB SCT020 BKN100
BECMG 1212/1214 00000KT

Example: see airport list